sensor_id;sensor_type;location;lat;lon;timestamp;pressure;altitude;pressure_sealevel;temperature
40624;BMP280;26325;48.594;11.650;2022-09-30T00:02:10;95692.06;;;8.10
40624;BMP280;26325;48.594;11.650;2022-09-30T00:04:39;95697.03;;;8.17
40624;BMP280;26325;48.594;11.650;2022-09-30T00:07:06;95699.38;;;8.23
40624;BMP280;26325;48.594;11.650;2022-09-30T00:09:32;95695.78;;;8.24
40624;BMP280;26325;48.594;11.650;2022-09-30T00:11:57;95692.88;;;8.46
40624;BMP280;26325;48.594;11.650;2022-09-30T00:14:25;95696.06;;;8.63
40624;BMP280;26325;48.594;11.650;2022-09-30T00:16:53;95705.69;;;8.41
40624;BMP280;26325;48.594;11.650;2022-09-30T00:19:21;95708.09;;;8.17
40624;BMP280;26325;48.594;11.650;2022-09-30T00:21:46;95717.00;;;8.10
40624;BMP280;26325;48.594;11.650;2022-09-30T00:24:12;95705.88;;;7.99
40624;BMP280;26325;48.594;11.650;2022-09-30T00:26:38;95702.78;;;8.02
40624;BMP280;26325;48.594;11.650;2022-09-30T00:29:05;95707.41;;;8.00
40624;BMP280;26325;48.594;11.650;2022-09-30T00:31:34;95708.72;;;8.34
40624;BMP280;26325;48.594;11.650;2022-09-30T00:34:00;95711.44;;;8.53
40624;BMP280;26325;48.594;11.650;2022-09-30T00:37:00;95721.41;;;8.45
40624;BMP280;26325;48.594;11.650;2022-09-30T00:39:28;95727.44;;;8.24
40624;BMP280;26325;48.594;11.650;2022-09-30T00:42:00;95725.88;;;8.23
40624;BMP280;26325;48.594;11.650;2022-09-30T00:44:49;95726.47;;;8.04
40624;BMP280;26325;48.594;11.650;2022-09-30T00:50:46;95724.75;;;7.89
40624;BMP280;26325;48.594;11.650;2022-09-30T00:53:29;95725.44;;;7.79
40624;BMP280;26325;48.594;11.650;2022-09-30T00:59:12;95721.09;;;8.06
40624;BMP280;26325;48.594;11.650;2022-09-30T01:01:42;95724.53;;;8.16
40624;BMP280;26325;48.594;11.650;2022-09-30T01:04:17;95731.44;;;8.41
40624;BMP280;26325;48.594;11.650;2022-09-30T01:06:45;95737.22;;;8.58
40624;BMP280;26325;48.594;11.650;2022-09-30T01:09:11;95753.69;;;8.57
40624;BMP280;26325;48.594;11.650;2022-09-30T01:11:37;95753.69;;;8.57
40624;BMP280;26325;48.594;11.650;2022-09-30T01:14:14;95760.38;;;8.01
40624;BMP280;26325;48.594;11.650;2022-09-30T01:39:57;95759.75;;;7.95
40624;BMP280;26325;48.594;11.650;2022-09-30T01:45:26;95759.41;;;7.60
40624;BMP280;26325;48.594;11.650;2022-09-30T01:47:59;95761.81;;;7.93
40624;BMP280;26325;48.594;11.650;2022-09-30T01:50:39;95773.97;;;8.23
40624;BMP280;26325;48.594;11.650;2022-09-30T01:55:48;95778.75;;;8.40
40624;BMP280;26325;48.594;11.650;2022-09-30T02:01:04;95780.81;;;7.92
40624;BMP280;26325;48.594;11.650;2022-09-30T02:03:37;95777.06;;;7.78
40624;BMP280;26325;48.594;11.650;2022-09-30T02:06:11;95767.81;;;7.77
40624;BMP280;26325;48.594;11.650;2022-09-30T02:11:47;95773.84;;;7.66
40624;BMP280;26325;48.594;11.650;2022-09-30T02:14:19;95762.38;;;7.74
40624;BMP280;26325;48.594;11.650;2022-09-30T02:17:03;95751.38;;;7.99
40624;BMP280;26325;48.594;11.650;2022-09-30T02:19:45;95751.94;;;8.32
40624;BMP280;26325;48.594;11.650;2022-09-30T02:22:28;95761.56;;;8.46
40624;BMP280;26325;48.594;11.650;2022-09-30T02:25:00;95774.66;;;8.44
40624;BMP280;26325;48.594;11.650;2022-09-30T02:27:40;95782.59;;;8.12
40624;BMP280;26325;48.594;11.650;2022-09-30T02:30:09;95777.56;;;8.22
40624;BMP280;26325;48.594;11.650;2022-09-30T02:32:51;95773.84;;;8.39
40624;BMP280;26325;48.594;11.650;2022-09-30T02:35:19;95783.75;;;8.26
40624;BMP280;26325;48.594;11.650;2022-09-30T02:37:51;95783.69;;;7.95
40624;BMP280;26325;48.594;11.650;2022-09-30T02:43:29;95779.69;;;8.04
40624;BMP280;26325;48.594;11.650;2022-09-30T02:46:11;95769.81;;;8.17
40624;BMP280;26325;48.594;11.650;2022-09-30T02:51:48;95769.94;;;7.85
40624;BMP280;26325;48.594;11.650;2022-09-30T03:00:32;95767.50;;;7.48
40624;BMP280;26325;48.594;11.650;2022-09-30T03:02:59;95770.22;;;7.41
40624;BMP280;26325;48.594;11.650;2022-09-30T03:05:28;95767.38;;;7.38
40624;BMP280;26325;48.594;11.650;2022-09-30T03:07:54;95764.84;;;7.43
40624;BMP280;26325;48.594;11.650;2022-09-30T03:10:20;95770.41;;;7.35
40624;BMP280;26325;48.594;11.650;2022-09-30T03:24:18;95796.50;;;7.69
40624;BMP280;26325;48.594;11.650;2022-09-30T03:29:36;95813.78;;;7.53
40624;BMP280;26325;48.594;11.650;2022-09-30T03:33:00;95816.81;;;7.50
40624;BMP280;26325;48.594;11.650;2022-09-30T03:38:46;95819.16;;;7.30
40624;BMP280;26325;48.594;11.650;2022-09-30T03:43:50;95801.63;;;7.27
40624;BMP280;26325;48.594;11.650;2022-09-30T03:46:39;95803.78;;;7.35
40624;BMP280;26325;48.594;11.650;2022-09-30T03:49:11;95808.78;;;7.25
40624;BMP280;26325;48.594;11.650;2022-09-30T03:51:40;95815.34;;;7.54
40624;BMP280;26325;48.594;11.650;2022-09-30T03:54:11;95821.91;;;7.87
40624;BMP280;26325;48.594;11.650;2022-09-30T03:56:38;95837.19;;;7.77
40624;BMP280;26325;48.594;11.650;2022-09-30T03:59:33;95845.28;;;7.64
40624;BMP280;26325;48.594;11.650;2022-09-30T04:01:59;95846.59;;;7.46
40624;BMP280;26325;48.594;11.650;2022-09-30T04:04:24;95848.94;;;7.31
40624;BMP280;26325;48.594;11.650;2022-09-30T04:06:52;95846.72;;;7.19
40624;BMP280;26325;48.594;11.650;2022-09-30T04:09:18;95846.25;;;7.22
40624;BMP280;26325;48.594;11.650;2022-09-30T04:11:43;95840.63;;;7.24
40624;BMP280;26325;48.594;11.650;2022-09-30T04:14:09;95833.88;;;7.19
40624;BMP280;26325;48.594;11.650;2022-09-30T04:16:34;95833.31;;;7.54
40624;BMP280;26325;48.594;11.650;2022-09-30T04:19:00;95835.94;;;7.59
40624;BMP280;26325;48.594;11.650;2022-09-30T04:21:26;95839.66;;;7.67
40624;BMP280;26325;48.594;11.650;2022-09-30T04:23:53;95848.06;;;7.84
40624;BMP280;26325;48.594;11.650;2022-09-30T04:26:21;95842.72;;;7.27
40624;BMP280;26325;48.594;11.650;2022-09-30T04:28:47;95855.63;;;6.95
40624;BMP280;26325;48.594;11.650;2022-09-30T04:31:14;95864.22;;;6.89
40624;BMP280;26325;48.594;11.650;2022-09-30T04:33:48;95866.72;;;6.84
40624;BMP280;26325;48.594;11.650;2022-09-30T04:36:15;95862.66;;;6.88
40624;BMP280;26325;48.594;11.650;2022-09-30T04:38:41;95859.09;;;6.73
40624;BMP280;26325;48.594;11.650;2022-09-30T04:41:12;95865.22;;;6.56
40624;BMP280;26325;48.594;11.650;2022-09-30T04:43:45;95858.28;;;6.41
40624;BMP280;26325;48.594;11.650;2022-09-30T04:46:19;95835.94;;;6.84
40624;BMP280;26325;48.594;11.650;2022-09-30T04:48:46;95835.00;;;6.74
40624;BMP280;26325;48.594;11.650;2022-09-30T04:51:17;95833.69;;;6.88
40624;BMP280;26325;48.594;11.650;2022-09-30T04:53:44;95844.47;;;6.58
40624;BMP280;26325;48.594;11.650;2022-09-30T04:56:13;95846.47;;;6.40
40624;BMP280;26325;48.594;11.650;2022-09-30T04:58:39;95841.66;;;6.27
40624;BMP280;26325;48.594;11.650;2022-09-30T05:01:06;95837.31;;;6.44
40624;BMP280;26325;48.594;11.650;2022-09-30T05:03:35;95841.31;;;6.24
40624;BMP280;26325;48.594;11.650;2022-09-30T05:06:05;95832.66;;;6.13
40624;BMP280;26325;48.594;11.650;2022-09-30T05:08:31;95816.66;;;6.07
40624;BMP280;26325;48.594;11.650;2022-09-30T05:11:06;95806.63;;;6.05
40624;BMP280;26325;48.594;11.650;2022-09-30T05:13:39;95803.97;;;6.44
40624;BMP280;26325;48.594;11.650;2022-09-30T05:16:08;95800.50;;;6.06
40624;BMP280;26325;48.594;11.650;2022-09-30T05:18:34;95804.22;;;5.99
40624;BMP280;26325;48.594;11.650;2022-09-30T05:21:01;95801.88;;;5.97
40624;BMP280;26325;48.594;11.650;2022-09-30T05:23:29;95796.25;;;5.84
40624;BMP280;26325;48.594;11.650;2022-09-30T05:25:56;95799.31;;;5.97
40624;BMP280;26325;48.594;11.650;2022-09-30T05:28:22;95803.56;;;5.92
40624;BMP280;26325;48.594;11.650;2022-09-30T05:30:47;95801.66;;;5.99
40624;BMP280;26325;48.594;11.650;2022-09-30T05:33:14;95809.56;;;5.97
40624;BMP280;26325;48.594;11.650;2022-09-30T05:35:42;95802.28;;;6.06
40624;BMP280;26325;48.594;11.650;2022-09-30T05:38:09;95792.13;;;6.10
40624;BMP280;26325;48.594;11.650;2022-09-30T05:40:39;95791.75;;;6.18
40624;BMP280;26325;48.594;11.650;2022-09-30T05:43:08;95804.06;;;6.05
40624;BMP280;26325;48.594;11.650;2022-09-30T05:45:36;95803.91;;;6.11
40624;BMP280;26325;48.594;11.650;2022-09-30T05:48:03;95756.38;;;6.20
40624;BMP280;26325;48.594;11.650;2022-09-30T05:50:29;95762.84;;;6.55
40624;BMP280;26325;48.594;11.650;2022-09-30T05:52:55;95777.00;;;6.57
40624;BMP280;26325;48.594;11.650;2022-09-30T05:55:21;95782.59;;;6.54
40624;BMP280;26325;48.594;11.650;2022-09-30T05:57:48;95791.09;;;7.08
40624;BMP280;26325;48.594;11.650;2022-09-30T06:00:14;95801.81;;;7.42
40624;BMP280;26325;48.594;11.650;2022-09-30T06:02:42;95815.94;;;7.81
40624;BMP280;26325;48.594;11.650;2022-09-30T06:05:09;95867.34;;;7.81
40624;BMP280;26325;48.594;11.650;2022-09-30T06:07:37;95904.34;;;7.80
40624;BMP280;26325;48.594;11.650;2022-09-30T06:10:05;95933.94;;;7.46
40624;BMP280;26325;48.594;11.650;2022-09-30T06:12:31;95959.09;;;7.81
40624;BMP280;26325;48.594;11.650;2022-09-30T06:14:58;95967.94;;;8.27
40624;BMP280;26325;48.594;11.650;2022-09-30T06:17:24;95991.50;;;8.61
40624;BMP280;26325;48.594;11.650;2022-09-30T06:19:49;95995.16;;;9.42
40624;BMP280;26325;48.594;11.650;2022-09-30T06:22:18;95996.75;;;10.89
40624;BMP280;26325;48.594;11.650;2022-09-30T06:24:44;96006.13;;;11.24
40624;BMP280;26325;48.594;11.650;2022-09-30T06:27:10;96004.84;;;11.95
40624;BMP280;26325;48.594;11.650;2022-09-30T06:29:38;96010.75;;;14.77
40624;BMP280;26325;48.594;11.650;2022-09-30T06:32:04;96000.34;;;17.22
40624;BMP280;26325;48.594;11.650;2022-09-30T06:34:30;96013.50;;;15.26
40624;BMP280;26325;48.594;11.650;2022-09-30T06:36:58;96014.97;;;14.00
40624;BMP280;26325;48.594;11.650;2022-09-30T06:39:23;96030.00;;;13.33
40624;BMP280;26325;48.594;11.650;2022-09-30T06:41:53;96038.38;;;15.68
40624;BMP280;26325;48.594;11.650;2022-09-30T06:44:20;96026.91;;;13.63
40624;BMP280;26325;48.594;11.650;2022-09-30T06:46:46;96044.88;;;12.46
40624;BMP280;26325;48.594;11.650;2022-09-30T06:49:11;96050.84;;;12.46
40624;BMP280;26325;48.594;11.650;2022-09-30T06:51:36;96040.66;;;12.74
40624;BMP280;26325;48.594;11.650;2022-09-30T06:54:02;96056.25;;;12.50
40624;BMP280;26325;48.594;11.650;2022-09-30T06:56:27;96045.91;;;13.54
40624;BMP280;26325;48.594;11.650;2022-09-30T06:58:58;96049.47;;;13.25
40624;BMP280;26325;48.594;11.650;2022-09-30T07:01:26;96056.63;;;12.95
40624;BMP280;26325;48.594;11.650;2022-09-30T07:03:51;96047.38;;;12.80
40624;BMP280;26325;48.594;11.650;2022-09-30T07:06:22;96044.56;;;12.62
40624;BMP280;26325;48.594;11.650;2022-09-30T07:08:48;96040.59;;;12.84
40624;BMP280;26325;48.594;11.650;2022-09-30T07:11:16;96049.81;;;12.38
40624;BMP280;26325;48.594;11.650;2022-09-30T07:13:44;96049.59;;;12.19
40624;BMP280;26325;48.594;11.650;2022-09-30T07:16:13;96051.84;;;12.40
40624;BMP280;26325;48.594;11.650;2022-09-30T07:18:39;96045.34;;;12.67
40624;BMP280;26325;48.594;11.650;2022-09-30T07:21:09;96051.47;;;12.91
40624;BMP280;26325;48.594;11.650;2022-09-30T07:23:36;96054.22;;;13.14
40624;BMP280;26325;48.594;11.650;2022-09-30T07:26:02;96052.25;;;13.33
40624;BMP280;26325;48.594;11.650;2022-09-30T07:28:33;96049.41;;;13.40
40624;BMP280;26325;48.594;11.650;2022-09-30T07:31:01;96056.94;;;13.74
40624;BMP280;26325;48.594;11.650;2022-09-30T07:33:33;96063.03;;;14.25
40624;BMP280;26325;48.594;11.650;2022-09-30T07:36:00;96071.31;;;14.78
40624;BMP280;26325;48.594;11.650;2022-09-30T07:38:27;96065.88;;;14.97
40624;BMP280;26325;48.594;11.650;2022-09-30T07:40:58;96069.75;;;15.00
40624;BMP280;26325;48.594;11.650;2022-09-30T07:43:29;96073.91;;;15.42
40624;BMP280;26325;48.594;11.650;2022-09-30T07:46:18;96084.03;;;15.02
40624;BMP280;26325;48.594;11.650;2022-09-30T07:48:50;96082.94;;;15.08
40624;BMP280;26325;48.594;11.650;2022-09-30T07:51:31;96084.31;;;14.78
40624;BMP280;26325;48.594;11.650;2022-09-30T07:54:02;96085.59;;;15.03
40624;BMP280;26325;48.594;11.650;2022-09-30T07:56:31;96088.22;;;14.75
40624;BMP280;26325;48.594;11.650;2022-09-30T07:58:58;96080.41;;;15.03
40624;BMP280;26325;48.594;11.650;2022-09-30T08:01:27;96081.53;;;14.69
40624;BMP280;26325;48.594;11.650;2022-09-30T08:03:54;96074.97;;;14.26
40624;BMP280;26325;48.594;11.650;2022-09-30T08:06:20;96085.63;;;14.52
40624;BMP280;26325;48.594;11.650;2022-09-30T08:08:48;96084.03;;;15.02
40624;BMP280;26325;48.594;11.650;2022-09-30T08:11:14;96097.69;;;13.73
40624;BMP280;26325;48.594;11.650;2022-09-30T08:13:43;96095.16;;;14.57
40624;BMP280;26325;48.594;11.650;2022-09-30T08:16:08;96100.50;;;14.70
40624;BMP280;26325;48.594;11.650;2022-09-30T08:18:34;96098.00;;;14.83
40624;BMP280;26325;48.594;11.650;2022-09-30T08:21:04;96089.09;;;15.35
40624;BMP280;26325;48.594;11.650;2022-09-30T08:23:31;96091.84;;;15.43
40624;BMP280;26325;48.594;11.650;2022-09-30T08:26:04;96083.38;;;14.69
40624;BMP280;26325;48.594;11.650;2022-09-30T08:28:29;96080.28;;;15.49
40624;BMP280;26325;48.594;11.650;2022-09-30T08:31:06;96087.13;;;15.63
40624;BMP280;26325;48.594;11.650;2022-09-30T08:33:31;96087.19;;;14.99
40624;BMP280;26325;48.594;11.650;2022-09-30T08:36:24;96089.50;;;14.78
40624;BMP280;26325;48.594;11.650;2022-09-30T08:38:50;96095.44;;;15.47
40624;BMP280;26325;48.594;11.650;2022-09-30T08:47:08;96101.88;;;15.13
40624;BMP280;26325;48.594;11.650;2022-09-30T08:52:18;96108.16;;;15.66
40624;BMP280;26325;48.594;11.650;2022-09-30T08:54:50;96110.69;;;15.71
40624;BMP280;26325;48.594;11.650;2022-09-30T08:57:17;96104.31;;;15.05
40624;BMP280;26325;48.594;11.650;2022-09-30T08:59:54;96118.41;;;14.71
40624;BMP280;26325;48.594;11.650;2022-09-30T09:02:30;96132.22;;;14.67
40624;BMP280;26325;48.594;11.650;2022-09-30T09:05:04;96138.91;;;14.17
40624;BMP280;26325;48.594;11.650;2022-09-30T09:16:35;96126.13;;;16.04
40624;BMP280;26325;48.594;11.650;2022-09-30T09:19:10;96136.47;;;15.91
40624;BMP280;26325;48.594;11.650;2022-09-30T09:24:27;96138.75;;;16.28
40624;BMP280;26325;48.594;11.650;2022-09-30T09:26:56;96143.34;;;15.00
40624;BMP280;26325;48.594;11.650;2022-09-30T09:32:10;96142.63;;;14.90
40624;BMP280;26325;48.594;11.650;2022-09-30T09:34:36;96150.00;;;14.55
40624;BMP280;26325;48.594;11.650;2022-09-30T09:43:01;96152.69;;;15.47
40624;BMP280;26325;48.594;11.650;2022-09-30T09:48:01;96165.72;;;16.68
40624;BMP280;26325;48.594;11.650;2022-09-30T09:55:54;96158.66;;;17.53
40624;BMP280;26325;48.594;11.650;2022-09-30T09:58:20;96153.09;;;17.93
40624;BMP280;26325;48.594;11.650;2022-09-30T10:00:45;96151.50;;;17.18
40624;BMP280;26325;48.594;11.650;2022-09-30T10:03:24;96152.03;;;17.94
40624;BMP280;26325;48.594;11.650;2022-09-30T10:06:10;96160.09;;;17.06
40624;BMP280;26325;48.594;11.650;2022-09-30T10:08:55;96164.06;;;16.59
40624;BMP280;26325;48.594;11.650;2022-09-30T10:11:23;96160.28;;;16.65
40624;BMP280;26325;48.594;11.650;2022-09-30T10:13:48;96161.03;;;15.44
40624;BMP280;26325;48.594;11.650;2022-09-30T10:16:33;96164.63;;;15.66
40624;BMP280;26325;48.594;11.650;2022-09-30T10:19:00;96164.22;;;14.90
40624;BMP280;26325;48.594;11.650;2022-09-30T10:21:27;96171.13;;;14.49
40624;BMP280;26325;48.594;11.650;2022-09-30T10:23:53;96153.97;;;14.76
40624;BMP280;26325;48.594;11.650;2022-09-30T10:26:20;96149.91;;;14.93
40624;BMP280;26325;48.594;11.650;2022-09-30T10:28:58;96161.75;;;15.26
40624;BMP280;26325;48.594;11.650;2022-09-30T10:31:36;96165.09;;;15.73
40624;BMP280;26325;48.594;11.650;2022-09-30T10:36:57;96180.22;;;15.30
40624;BMP280;26325;48.594;11.650;2022-09-30T10:42:02;96165.00;;;17.73
40624;BMP280;26325;48.594;11.650;2022-09-30T10:44:28;96178.44;;;18.70
40624;BMP280;26325;48.594;11.650;2022-09-30T10:47:00;96178.69;;;18.82
40624;BMP280;26325;48.594;11.650;2022-09-30T10:49:35;96179.88;;;16.94
40624;BMP280;26325;48.594;11.650;2022-09-30T10:52:02;96177.69;;;18.49
40624;BMP280;26325;48.594;11.650;2022-09-30T10:54:35;96188.16;;;16.82
40624;BMP280;26325;48.594;11.650;2022-09-30T10:57:01;96173.34;;;17.09
40624;BMP280;26325;48.594;11.650;2022-09-30T10:59:34;96189.22;;;15.78
40624;BMP280;26325;48.594;11.650;2022-09-30T11:02:30;96187.16;;;15.75
40624;BMP280;26325;48.594;11.650;2022-09-30T11:10:30;96177.09;;;17.69
40624;BMP280;26325;48.594;11.650;2022-09-30T11:13:03;96178.13;;;17.94
40624;BMP280;26325;48.594;11.650;2022-09-30T11:16:00;96194.81;;;16.88
40624;BMP280;26325;48.594;11.650;2022-09-30T11:18:40;96173.88;;;20.15
40624;BMP280;26325;48.594;11.650;2022-09-30T11:21:48;96158.66;;;23.63
40624;BMP280;26325;48.594;11.650;2022-09-30T11:24:28;96166.69;;;21.51
40624;BMP280;26325;48.594;11.650;2022-09-30T11:32:37;96169.22;;;18.51
40624;BMP280;26325;48.594;11.650;2022-09-30T11:35:24;96175.50;;;17.81
40624;BMP280;26325;48.594;11.650;2022-09-30T11:46:11;96183.31;;;18.64
40624;BMP280;26325;48.594;11.650;2022-09-30T11:48:56;96170.31;;;19.69
40624;BMP280;26325;48.594;11.650;2022-09-30T11:59:24;96200.06;;;18.63
40624;BMP280;26325;48.594;11.650;2022-09-30T12:01:51;96174.06;;;22.54
40624;BMP280;26325;48.594;11.650;2022-09-30T12:04:21;96187.28;;;21.77
40624;BMP280;26325;48.594;11.650;2022-09-30T12:07:04;96208.63;;;22.04
40624;BMP280;26325;48.594;11.650;2022-09-30T12:09:55;96207.66;;;22.89
40624;BMP280;26325;48.594;11.650;2022-09-30T12:12:22;96197.00;;;25.38
40624;BMP280;26325;48.594;11.650;2022-09-30T12:14:58;96203.91;;;25.15
40624;BMP280;26325;48.594;11.650;2022-09-30T12:17:45;96204.81;;;25.49
40624;BMP280;26325;48.594;11.650;2022-09-30T12:22:49;96193.69;;;26.72
40624;BMP280;26325;48.594;11.650;2022-09-30T12:25:25;96185.06;;;24.75
40624;BMP280;26325;48.594;11.650;2022-09-30T12:28:03;96186.53;;;22.97
40624;BMP280;26325;48.594;11.650;2022-09-30T12:30:55;96185.38;;;22.34
40624;BMP280;26325;48.594;11.650;2022-09-30T12:33:38;96195.44;;;24.56
40624;BMP280;26325;48.594;11.650;2022-09-30T12:39:21;96181.09;;;29.34
40624;BMP280;26325;48.594;11.650;2022-09-30T12:47:25;96158.31;;;21.29
40624;BMP280;26325;48.594;11.650;2022-09-30T12:49:57;96168.38;;;18.86
40624;BMP280;26325;48.594;11.650;2022-09-30T12:52:23;96154.88;;;19.68
40624;BMP280;26325;48.594;11.650;2022-09-30T12:54:58;96155.31;;;18.64
40624;BMP280;26325;48.594;11.650;2022-09-30T12:57:30;96153.41;;;17.66
40624;BMP280;26325;48.594;11.650;2022-09-30T13:00:02;96162.16;;;18.73
40624;BMP280;26325;48.594;11.650;2022-09-30T13:05:30;96151.88;;;17.52
40624;BMP280;26325;48.594;11.650;2022-09-30T13:20:49;96178.09;;;15.09
40624;BMP280;26325;48.594;11.650;2022-09-30T13:26:34;96186.38;;;14.55
40624;BMP280;26325;48.594;11.650;2022-09-30T13:32:00;96183.31;;;14.53
40624;BMP280;26325;48.594;11.650;2022-09-30T13:34:24;96180.03;;;14.71
40624;BMP280;26325;48.594;11.650;2022-09-30T13:42:28;96176.56;;;15.31
40624;BMP280;26325;48.594;11.650;2022-09-30T13:48:15;96182.66;;;15.22
40624;BMP280;26325;48.594;11.650;2022-09-30T13:50:51;96180.97;;;15.30
40624;BMP280;26325;48.594;11.650;2022-09-30T13:55:54;96172.44;;;15.48
40624;BMP280;26325;48.594;11.650;2022-09-30T13:58:34;96186.38;;;15.57
40624;BMP280;26325;48.594;11.650;2022-09-30T14:23:38;96152.34;;;18.14
40624;BMP280;26325;48.594;11.650;2022-09-30T14:31:44;96163.94;;;16.51
40624;BMP280;26325;48.594;11.650;2022-09-30T14:34:11;96162.53;;;17.29
40624;BMP280;26325;48.594;11.650;2022-09-30T14:36:37;96161.75;;;17.28
40624;BMP280;26325;48.594;11.650;2022-09-30T14:39:03;96164.66;;;17.53
40624;BMP280;26325;48.594;11.650;2022-09-30T14:41:29;96180.88;;;17.24
40624;BMP280;26325;48.594;11.650;2022-09-30T14:43:57;96184.75;;;16.69
40624;BMP280;26325;48.594;11.650;2022-09-30T14:46:33;96193.91;;;15.99
40624;BMP280;26325;48.594;11.650;2022-09-30T14:49:04;96192.38;;;16.78
40624;BMP280;26325;48.594;11.650;2022-09-30T14:51:39;96193.16;;;16.79
40624;BMP280;26325;48.594;11.650;2022-09-30T14:54:22;96192.75;;;15.87
40624;BMP280;26325;48.594;11.650;2022-09-30T14:56:50;96184.53;;;16.78
40624;BMP280;26325;48.594;11.650;2022-09-30T15:02:14;96192.13;;;15.54
40624;BMP280;26325;48.594;11.650;2022-09-30T15:04:45;96196.28;;;14.81
40624;BMP280;26325;48.594;11.650;2022-09-30T15:07:12;96204.41;;;14.75
40624;BMP280;26325;48.594;11.650;2022-09-30T15:09:39;96189.16;;;14.96
40624;BMP280;26325;48.594;11.650;2022-09-30T15:14:58;96201.38;;;16.05
40624;BMP280;26325;48.594;11.650;2022-09-30T15:17:26;96200.03;;;14.98
40624;BMP280;26325;48.594;11.650;2022-09-30T15:19:52;96200.41;;;14.54
40624;BMP280;26325;48.594;11.650;2022-09-30T15:22:20;96204.03;;;14.26
40624;BMP280;26325;48.594;11.650;2022-09-30T15:24:46;96209.72;;;13.90
40624;BMP280;26325;48.594;11.650;2022-09-30T15:27:39;96211.28;;;13.81
40624;BMP280;26325;48.594;11.650;2022-09-30T15:32:36;96217.03;;;13.83
40624;BMP280;26325;48.594;11.650;2022-09-30T15:35:06;96223.69;;;13.94
40624;BMP280;26325;48.594;11.650;2022-09-30T15:37:31;96224.97;;;14.01
40624;BMP280;26325;48.594;11.650;2022-09-30T15:39:58;96222.03;;;14.12
40624;BMP280;26325;48.594;11.650;2022-09-30T15:42:56;96220.63;;;13.92
40624;BMP280;26325;48.594;11.650;2022-09-30T15:50:39;96226.44;;;13.60
40624;BMP280;26325;48.594;11.650;2022-09-30T15:53:30;96233.69;;;13.68
40624;BMP280;26325;48.594;11.650;2022-09-30T15:56:04;96231.25;;;14.33
40624;BMP280;26325;48.594;11.650;2022-09-30T15:58:40;96239.41;;;14.17
40624;BMP280;26325;48.594;11.650;2022-09-30T16:03:56;96241.47;;;13.68
40624;BMP280;26325;48.594;11.650;2022-09-30T16:06:31;96238.66;;;13.54
40624;BMP280;26325;48.594;11.650;2022-09-30T16:09:01;96234.28;;;13.50
40624;BMP280;26325;48.594;11.650;2022-09-30T16:11:38;96230.53;;;13.75
40624;BMP280;26325;48.594;11.650;2022-09-30T16:14:20;96239.63;;;13.73
40624;BMP280;26325;48.594;11.650;2022-09-30T16:16:52;96243.78;;;13.74
40624;BMP280;26325;48.594;11.650;2022-09-30T16:19:19;96245.13;;;13.67
40624;BMP280;26325;48.594;11.650;2022-09-30T16:21:49;96262.09;;;13.20
40624;BMP280;26325;48.594;11.650;2022-09-30T16:27:17;96257.19;;;13.09
40624;BMP280;26325;48.594;11.650;2022-09-30T16:29:44;96259.25;;;13.17
40624;BMP280;26325;48.594;11.650;2022-09-30T16:32:10;96261.34;;;13.20
40624;BMP280;26325;48.594;11.650;2022-09-30T16:34:38;96253.00;;;13.28
40624;BMP280;26325;48.594;11.650;2022-09-30T16:37:10;96267.34;;;12.91
40624;BMP280;26325;48.594;11.650;2022-09-30T16:39:36;96269.69;;;12.63
40624;BMP280;26325;48.594;11.650;2022-09-30T16:42:01;96266.31;;;12.68
40624;BMP280;26325;48.594;11.650;2022-09-30T16:44:29;96264.75;;;12.67
40624;BMP280;26325;48.594;11.650;2022-09-30T16:46:58;96277.72;;;12.67
40624;BMP280;26325;48.594;11.650;2022-09-30T16:49:24;96276.91;;;12.56
40624;BMP280;26325;48.594;11.650;2022-09-30T16:51:50;96269.66;;;12.54
40624;BMP280;26325;48.594;11.650;2022-09-30T16:54:15;96273.78;;;12.59
40624;BMP280;26325;48.594;11.650;2022-09-30T16:56:40;96265.00;;;13.04
40624;BMP280;26325;48.594;11.650;2022-09-30T16:59:11;96268.66;;;12.89
40624;BMP280;26325;48.594;11.650;2022-09-30T17:01:37;96265.75;;;12.56
40624;BMP280;26325;48.594;11.650;2022-09-30T17:04:03;96266.03;;;12.45
40624;BMP280;26325;48.594;11.650;2022-09-30T17:06:30;96264.97;;;12.41
40624;BMP280;26325;48.594;11.650;2022-09-30T17:08:58;96271.72;;;12.42
40624;BMP280;26325;48.594;11.650;2022-09-30T17:11:27;96274.59;;;12.55
40624;BMP280;26325;48.594;11.650;2022-09-30T17:13:56;96280.06;;;12.63
40624;BMP280;26325;48.594;11.650;2022-09-30T17:16:22;96283.94;;;12.85
40624;BMP280;26325;48.594;11.650;2022-09-30T17:18:48;96287.56;;;13.04
40624;BMP280;26325;48.594;11.650;2022-09-30T17:21:22;96284.13;;;13.28
40624;BMP280;26325;48.594;11.650;2022-09-30T17:23:48;96283.06;;;13.43
40624;BMP280;26325;48.594;11.650;2022-09-30T17:26:14;96297.88;;;13.28
40624;BMP280;26325;48.594;11.650;2022-09-30T17:28:39;96297.63;;;13.30
40624;BMP280;26325;48.594;11.650;2022-09-30T17:31:09;96300.75;;;13.12
40624;BMP280;26325;48.594;11.650;2022-09-30T17:33:38;96302.06;;;12.76
40624;BMP280;26325;48.594;11.650;2022-09-30T17:36:08;96306.13;;;12.33
40624;BMP280;26325;48.594;11.650;2022-09-30T17:38:37;96298.16;;;12.54
40624;BMP280;26325;48.594;11.650;2022-09-30T17:41:04;96304.31;;;12.23
40624;BMP280;26325;48.594;11.650;2022-09-30T17:43:48;96305.81;;;11.95
40624;BMP280;26325;48.594;11.650;2022-09-30T17:46:15;96303.84;;;12.51
40624;BMP280;26325;48.594;11.650;2022-09-30T17:48:45;96307.16;;;12.22
40624;BMP280;26325;48.594;11.650;2022-09-30T17:51:12;96308.88;;;11.97
40624;BMP280;26325;48.594;11.650;2022-09-30T17:53:40;96315.88;;;11.92
40624;BMP280;26325;48.594;11.650;2022-09-30T17:56:14;96306.59;;;11.96
40624;BMP280;26325;48.594;11.650;2022-09-30T17:58:41;96306.25;;;11.87
40624;BMP280;26325;48.594;11.650;2022-09-30T18:01:08;96314.63;;;12.14
40624;BMP280;26325;48.594;11.650;2022-09-30T18:03:33;96314.16;;;12.21
40624;BMP280;26325;48.594;11.650;2022-09-30T18:06:00;96321.88;;;12.07
40624;BMP280;26325;48.594;11.650;2022-09-30T18:08:25;96328.31;;;12.04
40624;BMP280;26325;48.594;11.650;2022-09-30T18:10:54;96330.16;;;12.04
40624;BMP280;26325;48.594;11.650;2022-09-30T18:13:22;96330.72;;;12.20
40624;BMP280;26325;48.594;11.650;2022-09-30T18:15:50;96327.09;;;12.26
40624;BMP280;26325;48.594;11.650;2022-09-30T18:18:18;96341.53;;;12.08